createdAt,value
2019-02-11T00:01:32.101Z,3.40
2019-02-11T00:04:03.902Z,3.30
2019-02-11T00:06:35.141Z,3.20
2019-02-11T00:09:09.329Z,3.20
2019-02-11T00:11:40.412Z,3.30
2019-02-11T00:14:11.472Z,3.20
2019-02-11T00:16:43.422Z,3.30
2019-02-11T00:19:14.576Z,3.30
2019-02-11T00:21:45.812Z,3.30
2019-02-11T00:24:15.793Z,3.20
2019-02-11T00:26:45.868Z,3.30
2019-02-11T00:29:15.277Z,3.30
2019-02-11T00:31:46.351Z,3.30
2019-02-11T00:34:17.521Z,3.30
2019-02-11T00:36:47.649Z,3.30
2019-02-11T00:39:18.697Z,3.10
2019-02-11T00:41:49.777Z,3.30
2019-02-11T00:44:20.823Z,3.30
2019-02-11T00:46:51.957Z,3.10
2019-02-11T00:49:23.094Z,3.30
2019-02-11T00:51:54.337Z,3.40
2019-02-11T00:54:26.824Z,3.20
2019-02-11T00:56:56.818Z,3.30
2019-02-11T00:59:29.217Z,3.20
2019-02-11T01:01:59.101Z,3.30
2019-02-11T01:04:30.252Z,3.30
2019-02-11T01:07:01.367Z,3.40
2019-02-11T01:09:32.618Z,3.30
2019-02-11T01:12:03.692Z,3.20
2019-02-11T01:14:34.721Z,3.00
2019-02-11T01:17:07.063Z,3.10
2019-02-11T01:19:38.107Z,3.00
2019-02-11T01:22:11.593Z,2.90
2019-02-11T01:24:42.681Z,2.90
2019-02-11T01:27:13.853Z,2.70
2019-02-11T01:29:44.845Z,2.70
2019-02-11T01:32:16.985Z,2.90
2019-02-11T01:34:48.172Z,2.80
2019-02-11T01:37:20.660Z,2.80
2019-02-11T01:39:51.789Z,2.70
2019-02-11T01:42:22.815Z,2.70
2019-02-11T01:44:52.692Z,2.70
2019-02-11T01:47:26.142Z,2.70
2019-02-11T01:49:57.337Z,2.60
2019-02-11T01:52:27.257Z,2.60
2019-02-11T01:54:57.112Z,2.60
2019-02-11T01:57:28.173Z,2.60
2019-02-11T01:59:59.352Z,2.50
2019-02-11T02:02:30.492Z,2.50
2019-02-11T02:05:00.532Z,2.50
2019-02-11T02:07:30.532Z,2.40
2019-02-11T02:10:03.977Z,2.50
2019-02-11T02:12:35.052Z,2.60
2019-02-11T02:15:06.733Z,2.50
2019-02-11T02:17:37.935Z,2.50
2019-02-11T02:20:12.273Z,2.50
2019-02-11T02:22:44.579Z,2.60
2019-02-11T02:25:15.752Z,2.60
2019-02-11T02:27:46.852Z,2.60
2019-02-11T02:30:17.870Z,2.60
2019-02-11T02:32:49.172Z,2.50
2019-02-11T02:35:20.287Z,2.50
2019-02-11T02:37:50.339Z,2.60
2019-02-11T02:40:22.105Z,2.50
2019-02-11T02:42:53.264Z,2.50
2019-02-11T02:45:25.052Z,2.50
2019-02-11T02:47:56.110Z,2.50
2019-02-11T02:50:27.260Z,2.60
2019-02-11T02:52:59.023Z,2.50
2019-02-11T02:55:30.181Z,2.60
2019-02-11T02:58:03.332Z,3.10
2019-02-11T03:00:34.409Z,2.80
2019-02-11T03:03:05.100Z,2.80
2019-02-11T03:05:36.252Z,3.50
2019-02-11T03:08:06.157Z,3.70
2019-02-11T03:10:36.211Z,3.60
2019-02-11T03:13:06.177Z,3.60
2019-02-11T03:15:37.257Z,3.70
2019-02-11T03:18:07.214Z,3.70
2019-02-11T03:20:37.172Z,3.70
2019-02-11T03:23:08.255Z,3.50
2019-02-11T03:25:38.139Z,3.50
2019-02-11T03:28:09.371Z,3.50
2019-02-11T03:30:39.387Z,3.60
2019-02-11T03:33:08.781Z,3.50
2019-02-11T03:35:38.781Z,3.50
2019-02-11T03:38:08.898Z,3.60
2019-02-11T03:40:40.067Z,3.50
2019-02-11T03:43:12.659Z,3.50
2019-02-11T03:45:43.411Z,3.60
2019-02-11T03:48:14.177Z,3.60
2019-02-11T03:50:44.849Z,3.70
2019-02-11T03:53:16.027Z,3.70
2019-02-11T03:55:47.240Z,3.70
2019-02-11T03:58:17.132Z,3.80
2019-02-11T04:00:48.213Z,3.70
2019-02-11T04:03:19.382Z,3.70
2019-02-11T04:05:50.509Z,3.70
2019-02-11T04:08:20.938Z,3.70
2019-02-11T04:10:52.091Z,3.70
2019-02-11T04:13:23.230Z,3.60
2019-02-11T04:15:57.102Z,3.70
2019-02-11T04:18:28.254Z,3.60
2019-02-11T04:20:58.132Z,3.60
2019-02-11T04:23:29.249Z,3.60
2019-02-11T04:26:00.373Z,3.70
2019-02-11T04:28:31.432Z,3.60
2019-02-11T04:31:01.401Z,3.50
2019-02-11T04:33:30.765Z,3.50
2019-02-11T04:36:00.930Z,3.50
2019-02-11T04:38:32.061Z,3.70
2019-02-11T04:42:06.945Z,3.70
2019-02-11T04:44:36.501Z,3.70
2019-02-11T04:47:06.803Z,3.70
2019-02-11T04:49:36.897Z,3.70
2019-02-11T04:52:08.029Z,3.70
2019-02-11T04:54:40.689Z,3.50
2019-02-11T04:57:11.901Z,3.60
2019-02-11T04:59:44.097Z,3.60
2019-02-11T05:02:16.652Z,3.60
2019-02-11T05:04:47.530Z,3.60
2019-02-11T05:07:18.817Z,3.60
2019-02-11T05:09:50.864Z,3.60
2019-02-11T05:12:21.590Z,3.60
2019-02-11T05:14:52.654Z,3.60
2019-02-11T05:17:23.776Z,3.50
2019-02-11T05:19:53.880Z,3.50
2019-02-11T05:22:25.140Z,3.60
2019-02-11T05:24:57.062Z,3.60
2019-02-11T05:27:29.553Z,3.50
2019-02-11T05:30:00.591Z,3.60
2019-02-11T05:32:31.704Z,3.50
2019-02-11T05:35:02.880Z,3.50
2019-02-11T05:37:34.057Z,3.50
2019-02-11T05:40:05.197Z,3.50
2019-02-11T05:42:35.225Z,3.50
2019-02-11T05:45:06.949Z,3.60
2019-02-11T05:47:38.066Z,3.50
2019-02-11T05:50:15.434Z,3.60
2019-02-11T05:52:45.418Z,3.50
2019-02-11T05:55:16.504Z,3.50
2019-02-11T05:57:47.534Z,3.50
2019-02-11T06:00:20.439Z,3.40
2019-02-11T06:02:51.664Z,3.60
2019-02-11T06:05:22.861Z,3.50
2019-02-11T06:07:52.912Z,3.60
2019-02-11T06:10:23.922Z,3.50
2019-02-11T06:12:54.022Z,3.50
2019-02-11T06:15:25.862Z,3.50
2019-02-11T06:17:57.018Z,3.50
2019-02-11T06:20:28.138Z,3.60
2019-02-11T06:22:59.261Z,3.60
2019-02-11T06:25:30.656Z,3.60
2019-02-11T06:28:01.777Z,3.60
2019-02-11T06:30:32.827Z,3.60
2019-02-11T06:33:04.012Z,3.60
2019-02-11T06:35:34.797Z,3.60
2019-02-11T06:38:06.813Z,3.70
2019-02-11T06:40:36.777Z,3.60
2019-02-11T06:43:07.932Z,3.60
2019-02-11T06:45:37.909Z,3.60
2019-02-11T06:48:09.143Z,3.60
2019-02-11T06:50:40.403Z,3.50
2019-02-11T06:53:11.674Z,3.60
2019-02-11T06:55:42.782Z,3.50
2019-02-11T06:58:13.972Z,3.60
2019-02-11T07:00:45.143Z,3.60
2019-02-11T07:03:16.494Z,3.60
2019-02-11T07:05:47.734Z,3.60
2019-02-11T07:08:18.946Z,3.60
2019-02-11T07:10:55.453Z,3.60
2019-02-11T07:13:23.084Z,3.60
2019-02-11T07:15:54.302Z,3.60
2019-02-11T07:18:25.514Z,3.60
2019-02-11T07:20:57.334Z,3.60
2019-02-11T07:23:29.795Z,3.70
2019-02-11T07:26:00.956Z,3.70
2019-02-11T07:28:32.024Z,3.70
2019-02-11T07:31:03.191Z,3.60
2019-02-11T07:33:36.301Z,3.70
2019-02-11T07:36:07.547Z,3.80
2019-02-11T07:38:38.699Z,3.80
2019-02-11T07:41:09.743Z,3.80
2019-02-11T07:43:45.421Z,3.80
2019-02-11T07:46:18.391Z,3.80
2019-02-11T07:48:50.293Z,3.80
2019-02-11T07:51:20.274Z,3.80
2019-02-11T07:53:52.163Z,3.70
2019-02-11T07:56:23.307Z,3.70
2019-02-11T07:58:54.476Z,3.60
2019-02-11T08:01:25.593Z,3.70
2019-02-11T08:03:56.202Z,3.60
2019-02-11T08:06:28.429Z,3.70
2019-02-11T08:08:59.870Z,3.60
2019-02-11T08:11:30.150Z,3.70
2019-02-11T08:14:00.397Z,3.60
2019-02-11T08:16:31.639Z,3.60
2019-02-11T08:19:02.957Z,3.60
2019-02-11T08:21:34.200Z,3.60
2019-02-11T08:24:05.641Z,3.60
2019-02-11T08:26:36.802Z,3.50
2019-02-11T08:29:08.230Z,3.50
2019-02-11T08:31:39.440Z,3.50
2019-02-11T08:34:10.670Z,3.60
2019-02-11T08:36:41.879Z,3.60
2019-02-11T08:39:12.213Z,3.60
2019-02-11T08:41:43.510Z,3.70
2019-02-11T08:44:14.762Z,3.70
2019-02-11T08:46:46.201Z,3.80
2019-02-11T08:49:17.469Z,3.80
2019-02-11T08:51:49.711Z,3.80
2019-02-11T08:54:20.994Z,3.80
2019-02-11T08:56:52.250Z,3.80
2019-02-11T08:59:23.765Z,3.90
2019-02-11T09:01:55.801Z,3.90
2019-02-11T09:04:27.112Z,3.90
2019-02-11T09:06:58.561Z,3.90
2019-02-11T09:09:29.950Z,4.00
2019-02-11T09:12:00.127Z,4.00
2019-02-11T09:14:30.987Z,4.00
2019-02-11T09:17:10.096Z,4.00
2019-02-11T09:19:35.787Z,4.00
2019-02-11T09:22:07.738Z,4.10
2019-02-11T09:24:39.435Z,4.10
2019-02-11T09:27:10.829Z,4.20
2019-02-11T09:29:42.192Z,4.20
2019-02-11T09:32:12.390Z,4.30
2019-02-11T09:34:44.871Z,4.30
2019-02-11T09:37:16.289Z,4.30
2019-02-11T09:39:47.794Z,4.50
2019-02-11T09:46:25.349Z,4.50
2019-02-11T09:48:56.510Z,4.60
2019-02-11T09:51:29.355Z,4.70
2019-02-11T09:54:01.042Z,5.10
2019-02-11T09:56:32.311Z,5.30
2019-02-11T09:59:03.790Z,5.20
2019-02-11T10:01:35.314Z,5.00
2019-02-11T10:04:06.570Z,4.90
2019-02-11T10:06:37.989Z,4.90
2019-02-11T10:09:09.831Z,5.30
2019-02-11T10:11:40.962Z,5.80
2019-02-11T10:14:12.161Z,5.30
2019-02-11T10:16:43.926Z,5.20
2019-02-11T10:19:14.609Z,5.00
2019-02-11T10:21:46.029Z,5.00
2019-02-11T10:24:17.709Z,5.00
2019-02-11T10:26:50.475Z,5.10
2019-02-11T10:29:21.597Z,5.30
2019-02-11T10:31:53.671Z,5.40
2019-02-11T10:34:24.962Z,5.60
2019-02-11T10:36:56.238Z,5.40
2019-02-11T10:39:27.409Z,5.70
2019-02-11T10:41:58.967Z,5.70
2019-02-11T10:44:30.296Z,5.50
2019-02-11T10:47:02.365Z,5.50
2019-02-11T10:49:33.669Z,5.50
2019-02-11T10:52:05.678Z,5.60
2019-02-11T10:54:36.991Z,5.60
2019-02-11T10:57:08.350Z,5.50
2019-02-11T10:59:39.632Z,5.40
2019-02-11T11:02:10.797Z,5.30
2019-02-11T11:04:42.749Z,5.30
2019-02-11T11:07:13.990Z,5.30
2019-02-11T11:09:45.390Z,5.30
2019-02-11T11:12:16.789Z,5.40
2019-02-11T11:14:48.151Z,5.50
2019-02-11T11:17:19.482Z,5.60
2019-02-11T11:19:50.830Z,5.60
2019-02-11T11:22:22.275Z,5.40
2019-02-11T11:24:53.514Z,5.30
2019-02-11T11:27:23.674Z,5.30
2019-02-11T11:29:53.190Z,5.40
2019-02-11T11:32:24.362Z,5.40
2019-02-11T11:34:56.555Z,5.30
2019-02-11T11:37:30.471Z,5.20
2019-02-11T11:40:01.846Z,5.30
2019-02-11T11:42:33.109Z,5.60
2019-02-11T11:45:04.272Z,5.70
2019-02-11T11:47:36.123Z,5.60
2019-02-11T11:50:09.006Z,5.60
2019-02-11T11:52:40.392Z,5.50
2019-02-11T11:55:14.199Z,5.40
2019-02-11T11:57:44.393Z,5.20
2019-02-11T12:00:20.149Z,5.20
2019-02-11T12:03:03.942Z,5.10
2019-02-11T12:05:26.793Z,5.00
2019-02-11T12:07:57.210Z,4.90
2019-02-11T12:10:28.565Z,4.70
2019-02-11T12:12:59.907Z,4.60
2019-02-11T12:15:31.348Z,4.50
2019-02-11T12:18:02.605Z,4.50
2019-02-11T12:20:34.382Z,4.50
2019-02-11T12:23:05.995Z,4.40
2019-02-11T12:25:36.182Z,4.50
2019-02-11T12:28:07.496Z,4.50
2019-02-11T12:30:40.393Z,4.50
2019-02-11T12:33:11.688Z,4.40
2019-02-11T12:35:43.110Z,4.40
2019-02-11T12:38:13.360Z,4.40
2019-02-11T12:40:46.073Z,4.50
2019-02-11T12:43:16.152Z,4.80
2019-02-11T12:45:47.522Z,5.00
2019-02-11T12:48:17.920Z,5.10
2019-02-11T12:50:48.924Z,5.10
2019-02-11T12:53:22.035Z,5.10
2019-02-11T12:55:53.329Z,5.10
2019-02-11T12:58:24.762Z,4.90
2019-02-11T13:00:55.829Z,4.70
2019-02-11T13:03:28.558Z,4.70
2019-02-11T13:05:59.915Z,4.60
2019-02-11T13:08:30.032Z,4.50
2019-02-11T13:11:01.465Z,4.30
2019-02-11T13:13:33.210Z,4.30
2019-02-11T13:16:04.539Z,4.20
2019-02-11T13:18:39.233Z,4.20
2019-02-11T13:21:09.640Z,4.10
2019-02-11T13:23:39.213Z,4.10
2019-02-11T13:26:10.855Z,4.10
2019-02-11T13:28:40.386Z,4.00
2019-02-11T13:31:10.618Z,4.10
2019-02-11T13:33:42.003Z,4.00
2019-02-11T13:36:13.532Z,3.90
2019-02-11T13:38:44.931Z,3.80
2019-02-11T13:41:16.255Z,3.80
2019-02-11T13:43:54.710Z,3.70
2019-02-11T13:46:26.167Z,3.70
2019-02-11T13:49:00.410Z,3.80
2019-02-11T13:51:31.638Z,3.90
2019-02-11T13:54:03.118Z,3.80
2019-02-11T13:56:34.477Z,3.70
2019-02-11T13:59:05.927Z,3.70
2019-02-11T14:01:36.080Z,3.70
2019-02-11T14:04:07.635Z,3.60
2019-02-11T14:06:37.756Z,3.60
2019-02-11T14:09:12.252Z,3.60
2019-02-11T14:11:42.572Z,3.50
2019-02-11T14:14:13.980Z,3.50
2019-02-11T14:16:44.253Z,3.60
2019-02-11T14:19:15.675Z,3.50
2019-02-11T14:21:46.883Z,3.50
2019-02-11T14:24:18.159Z,3.50
2019-02-11T14:26:49.526Z,3.40
2019-02-11T14:29:20.735Z,3.40
2019-02-11T14:31:52.303Z,3.40
2019-02-11T14:34:23.525Z,3.30
2019-02-11T14:36:53.837Z,3.30
2019-02-11T14:39:24.138Z,3.20
2019-02-11T14:41:54.710Z,3.20
2019-02-11T14:44:26.483Z,3.20
2019-02-11T14:46:56.931Z,3.30
2019-02-11T14:49:28.413Z,3.20
2019-02-11T14:51:59.899Z,3.20
2019-02-11T14:54:31.287Z,3.20
2019-02-11T14:57:02.647Z,3.20
2019-02-11T14:59:34.721Z,3.20
2019-02-11T15:02:06.169Z,3.10
2019-02-11T15:04:37.599Z,3.20
2019-02-11T15:07:09.073Z,3.00
2019-02-11T15:09:39.807Z,3.10
2019-02-11T15:12:11.112Z,3.10
2019-02-11T15:14:42.478Z,3.10
2019-02-11T15:17:12.830Z,3.10
2019-02-11T15:19:47.281Z,3.10
2019-02-11T15:22:17.568Z,3.00
2019-02-11T15:24:47.444Z,3.10
2019-02-11T15:27:18.922Z,3.10
2019-02-11T15:29:50.361Z,3.00
2019-02-11T15:32:20.755Z,3.10
2019-02-11T15:34:51.270Z,3.00
2019-02-11T15:37:22.678Z,3.00
2019-02-11T15:39:54.319Z,3.00
2019-02-11T15:42:25.846Z,3.00
2019-02-11T15:44:57.438Z,3.00
2019-02-11T15:47:28.952Z,3.00
2019-02-11T15:50:00.591Z,3.00
2019-02-11T15:52:33.469Z,3.00
2019-02-11T15:55:04.962Z,3.00
2019-02-11T15:57:36.550Z,2.90
2019-02-11T16:00:09.831Z,2.90
2019-02-11T16:02:41.836Z,2.90
2019-02-11T16:05:16.665Z,2.90
2019-02-11T16:07:46.440Z,2.90
2019-02-11T16:10:23.431Z,3.00
2019-02-11T16:12:55.399Z,2.90
2019-02-11T16:15:26.951Z,2.90
2019-02-11T16:17:58.472Z,2.90
2019-02-11T16:20:30.479Z,2.90
2019-02-11T16:23:01.990Z,2.90
2019-02-11T16:25:34.243Z,3.00
2019-02-11T16:28:05.798Z,2.90
2019-02-11T16:30:37.231Z,2.80
2019-02-11T16:33:10.137Z,2.80
2019-02-11T16:35:43.069Z,2.80
2019-02-11T16:38:14.638Z,2.80
2019-02-11T16:40:45.000Z,2.80
2019-02-11T16:43:16.630Z,2.80
2019-02-11T16:45:48.234Z,2.80
2019-02-11T16:48:21.309Z,2.80
2019-02-11T16:50:52.839Z,2.80
2019-02-11T16:53:24.554Z,2.80
2019-02-11T16:55:56.078Z,2.80
2019-02-11T16:58:26.991Z,2.80
2019-02-11T17:00:58.522Z,2.80
2019-02-11T17:03:30.030Z,2.80
2019-02-11T17:06:01.560Z,2.80
2019-02-11T17:08:33.018Z,2.80
2019-02-11T17:11:04.510Z,2.80
2019-02-11T17:13:36.231Z,2.80
2019-02-11T17:16:07.838Z,2.80
2019-02-11T17:18:39.351Z,2.80
2019-02-11T17:21:09.753Z,2.80
2019-02-11T17:23:41.871Z,2.80
2019-02-11T17:26:11.677Z,2.80
2019-02-11T17:28:42.490Z,2.80
2019-02-11T17:31:13.648Z,2.70
2019-02-11T17:33:45.190Z,2.70
2019-02-11T17:36:16.711Z,2.80
2019-02-11T17:38:48.270Z,2.70
2019-02-11T17:41:20.391Z,2.80
2019-02-11T17:43:51.913Z,2.80
2019-02-11T17:46:25.911Z,2.80
2019-02-11T17:48:57.471Z,2.70
2019-02-11T17:51:29.831Z,2.80
2019-02-11T17:54:01.349Z,2.70
2019-02-11T17:56:33.000Z,2.70
2019-02-11T17:59:03.391Z,2.70
2019-02-11T18:01:34.871Z,2.70
2019-02-11T18:04:06.310Z,2.70
2019-02-11T18:06:38.671Z,2.70
2019-02-11T18:09:10.513Z,2.70
2019-02-11T18:11:41.991Z,2.70
2019-02-11T18:14:13.511Z,2.70
2019-02-11T18:16:43.914Z,2.70
2019-02-11T18:19:14.659Z,2.70
2019-02-11T18:21:46.152Z,2.70
2019-02-11T18:24:17.672Z,2.70
2019-02-11T18:26:48.071Z,2.70
2019-02-11T18:29:19.519Z,2.70
2019-02-11T18:31:51.031Z,2.70
2019-02-11T18:34:21.446Z,2.70
2019-02-11T18:36:52.991Z,2.70
2019-02-11T18:39:24.593Z,2.80
2019-02-11T18:41:56.070Z,2.70
2019-02-11T18:44:27.650Z,2.70
2019-02-11T18:46:59.712Z,2.80
2019-02-11T18:49:34.642Z,2.80
2019-02-11T18:52:02.049Z,2.80
2019-02-11T18:54:33.511Z,2.80
2019-02-11T18:57:06.273Z,2.70
2019-02-11T18:59:37.950Z,2.70
2019-02-11T19:02:09.416Z,2.70
2019-02-11T19:04:44.084Z,2.70
2019-02-11T19:07:15.631Z,2.70
2019-02-11T19:09:48.711Z,2.70
2019-02-11T19:12:19.039Z,2.80
2019-02-11T19:14:52.872Z,2.70
2019-02-11T19:17:22.638Z,2.70
2019-02-11T19:19:54.191Z,2.70
2019-02-11T19:22:25.755Z,2.70
2019-02-11T19:24:58.057Z,2.70
2019-02-11T19:27:29.595Z,2.70
2019-02-11T19:30:02.526Z,2.70
2019-02-11T19:32:35.312Z,2.70
2019-02-11T19:35:06.992Z,2.70
2019-02-11T19:37:38.564Z,2.70
2019-02-11T19:40:17.608Z,2.70
2019-02-11T19:42:49.231Z,2.70
2019-02-11T19:45:25.600Z,2.70
2019-02-11T19:47:57.152Z,2.70
2019-02-11T19:50:29.358Z,2.70
2019-02-11T19:53:00.958Z,2.60
2019-02-11T19:55:33.891Z,2.60
2019-02-11T19:58:05.439Z,2.60
2019-02-11T21:51:32.436Z,2.10
2019-02-11T21:54:04.121Z,2.10
2019-02-11T21:56:36.756Z,2.10
2019-02-11T21:59:08.682Z,2.10
2019-02-11T22:01:39.397Z,2.10
2019-02-11T22:04:10.236Z,2.10
2019-02-11T22:06:42.389Z,2.10
2019-02-11T22:09:14.748Z,2.10
2019-02-11T22:11:47.880Z,2.00
2019-02-11T22:14:20.712Z,2.00
2019-02-11T22:16:54.593Z,2.00
2019-02-11T22:22:17.188Z,2.00
2019-02-11T22:24:48.117Z,2.00
2019-02-11T22:27:19.231Z,2.00
2019-02-11T22:29:51.717Z,1.90
2019-02-11T22:32:23.828Z,1.90
2019-02-11T22:34:55.948Z,1.80
2019-02-11T22:37:25.842Z,1.80
2019-02-11T22:39:56.876Z,1.80
2019-02-11T22:42:43.496Z,1.80
2019-02-11T22:45:19.835Z,1.80
2019-02-11T22:47:52.351Z,1.90
2019-02-11T22:50:24.552Z,1.80
2019-02-11T22:52:56.436Z,1.90
2019-02-11T22:55:29.269Z,1.80
2019-02-11T22:58:01.806Z,1.80
2019-02-11T23:00:53.535Z,1.80
2019-02-11T23:03:24.596Z,1.80
2019-02-11T23:05:57.059Z,1.70
2019-02-11T23:08:29.588Z,1.70
2019-02-11T23:11:02.921Z,1.70
2019-02-11T23:13:34.828Z,1.80
2019-02-11T23:16:07.118Z,1.70
2019-02-11T23:18:39.028Z,1.70
2019-02-11T23:21:11.028Z,1.70
2019-02-11T23:23:43.917Z,1.70
2019-02-11T23:26:14.958Z,1.60
2019-02-11T23:28:47.037Z,1.60
2019-02-11T23:31:18.988Z,1.70
2019-02-11T23:33:51.746Z,1.60
2019-02-11T23:36:24.156Z,1.60
2019-02-11T23:38:55.956Z,1.60
2019-02-11T23:41:28.108Z,1.60
2019-02-11T23:44:00.156Z,1.60
2019-02-11T23:46:30.597Z,1.50
2019-02-11T23:49:03.150Z,1.50
2019-02-11T23:51:35.469Z,1.50
2019-02-11T23:54:06.496Z,1.50
2019-02-11T23:56:37.596Z,1.50
2019-02-11T23:59:09.553Z,1.50
